createdAt,value
2018-09-14T00:00:41.558Z,45.00
2018-09-14T00:03:08.804Z,48.77
2018-09-14T00:05:35.944Z,46.80
2018-09-14T00:08:03.943Z,41.30
2018-09-14T00:10:31.203Z,48.20
2018-09-14T00:12:58.336Z,51.03
2018-09-14T00:15:25.504Z,46.23
2018-09-14T00:17:52.750Z,48.40
2018-09-14T00:20:19.858Z,52.97
2018-09-14T00:22:47.100Z,53.37
2018-09-14T00:25:14.240Z,40.73
2018-09-14T00:27:41.352Z,49.13
2018-09-14T00:30:08.541Z,45.70
2018-09-14T00:32:35.711Z,46.63
2018-09-14T00:35:03.844Z,49.70
2018-09-14T00:37:31.056Z,52.40
2018-09-14T00:39:58.185Z,45.77
2018-09-14T00:42:25.348Z,41.00
2018-09-14T00:44:52.550Z,39.77
2018-09-14T00:47:19.688Z,40.77
2018-09-14T00:49:46.802Z,43.53
2018-09-14T00:52:14.001Z,43.70
2018-09-14T00:54:41.107Z,42.40
2018-09-14T00:57:08.276Z,39.27
2018-09-14T00:59:35.426Z,39.40
2018-09-14T01:02:02.535Z,42.40
2018-09-14T01:04:29.672Z,38.20
2018-09-14T01:06:56.873Z,39.43
2018-09-14T01:09:26.497Z,32.93
2018-09-14T01:11:54.516Z,37.00
2018-09-14T01:14:21.683Z,36.13
2018-09-14T01:16:48.848Z,36.53
2018-09-14T01:19:15.980Z,34.77
2018-09-14T01:21:43.165Z,38.80
2018-09-14T01:24:10.268Z,40.27
2018-09-14T01:26:37.688Z,35.97
2018-09-14T01:29:05.045Z,36.70
2018-09-14T01:31:32.204Z,37.60
2018-09-14T01:33:59.373Z,38.17
2018-09-14T01:36:26.625Z,37.83
2018-09-14T01:38:53.757Z,35.97
2018-09-14T01:41:20.904Z,37.93
2018-09-14T01:43:48.052Z,37.30
2018-09-14T01:46:15.160Z,40.03
2018-09-14T01:48:42.449Z,38.23
2018-09-14T01:51:09.596Z,37.83
2018-09-14T01:53:36.772Z,37.10
2018-09-14T01:56:03.960Z,37.03
2018-09-14T01:58:31.037Z,44.80
2018-09-14T02:00:58.163Z,34.80
2018-09-14T02:03:25.354Z,38.07
2018-09-14T02:05:52.508Z,35.27
2018-09-14T02:08:19.696Z,38.57
2018-09-14T02:10:46.809Z,41.97
2018-09-14T02:13:13.962Z,38.00
2018-09-14T02:15:41.136Z,36.97
2018-09-14T02:18:08.321Z,39.87
2018-09-14T02:20:36.648Z,37.60
2018-09-14T02:23:03.813Z,31.63
2018-09-14T02:25:30.947Z,36.60
2018-09-14T02:27:58.064Z,36.10
2018-09-14T02:30:25.204Z,38.77
2018-09-14T02:32:52.343Z,38.93
2018-09-14T02:35:19.432Z,32.83
2018-09-14T02:37:46.592Z,36.80
2018-09-14T02:40:13.728Z,37.93
2018-09-14T02:42:40.871Z,33.00
2018-09-14T02:45:08.064Z,36.27
2018-09-14T02:47:35.292Z,34.00
2018-09-14T02:50:02.502Z,33.30
2018-09-14T02:52:29.625Z,36.40
2018-09-14T02:54:56.808Z,36.23
2018-09-14T02:57:23.946Z,33.53
2018-09-14T02:59:51.067Z,34.10
2018-09-14T03:02:18.276Z,34.57
2018-09-14T03:04:45.377Z,39.17
2018-09-14T03:07:12.453Z,34.27
2018-09-14T03:09:39.728Z,35.87
2018-09-14T03:12:06.901Z,35.90
2018-09-14T03:14:34.053Z,31.37
2018-09-14T03:17:01.308Z,38.33
2018-09-14T03:19:28.406Z,39.43
2018-09-14T03:21:55.600Z,35.83
2018-09-14T03:24:22.757Z,38.93
2018-09-14T03:26:49.913Z,39.67
2018-09-14T03:29:17.092Z,43.37
2018-09-14T03:31:44.264Z,32.30
2018-09-14T03:34:11.348Z,37.47
2018-09-14T03:36:38.449Z,38.40
2018-09-14T03:39:07.139Z,45.27
2018-09-14T03:41:34.261Z,39.70
2018-09-14T03:44:01.945Z,37.07
2018-09-14T03:46:29.171Z,45.53
2018-09-14T03:48:56.271Z,36.90
2018-09-14T03:51:23.409Z,37.13
2018-09-14T03:53:50.556Z,40.93
2018-09-14T03:56:17.708Z,37.73
2018-09-14T03:58:44.851Z,33.20
2018-09-14T04:01:11.992Z,37.80
2018-09-14T04:03:39.137Z,33.00
2018-09-14T04:06:06.296Z,32.10
2018-09-14T04:08:33.460Z,37.90
2018-09-14T04:11:00.667Z,35.10
2018-09-14T04:13:27.804Z,31.37
2018-09-14T04:15:54.936Z,36.47
2018-09-14T04:18:22.229Z,34.73
2018-09-14T04:20:49.341Z,44.07
2018-09-14T04:23:16.491Z,33.93
2018-09-14T04:25:43.645Z,41.97
2018-09-14T04:28:10.793Z,40.80
2018-09-14T04:30:38.008Z,36.23
2018-09-14T04:33:05.121Z,55.40
2018-09-14T04:35:32.326Z,38.70
2018-09-14T04:37:59.530Z,43.07
2018-09-14T04:40:26.654Z,48.53
2018-09-14T04:42:53.786Z,41.60
2018-09-14T04:45:20.890Z,38.50
2018-09-14T04:47:47.972Z,42.10
2018-09-14T04:50:15.112Z,34.33
2018-09-14T04:52:42.237Z,40.20
2018-09-14T04:55:09.425Z,40.77
2018-09-14T04:57:36.596Z,44.37
2018-09-14T05:00:03.951Z,39.60
2018-09-14T05:02:31.073Z,40.87
2018-09-14T05:04:58.233Z,43.43
2018-09-14T05:07:25.366Z,42.50
2018-09-14T05:09:52.525Z,42.60
2018-09-14T05:12:19.651Z,40.73
2018-09-14T05:14:46.793Z,44.17
2018-09-14T05:17:14.011Z,53.10
2018-09-14T05:19:41.170Z,47.73
2018-09-14T05:22:08.328Z,48.57
2018-09-14T05:24:35.514Z,47.30
2018-09-14T05:27:02.600Z,40.90
2018-09-14T05:29:29.810Z,46.03
2018-09-14T05:31:56.957Z,41.37
2018-09-14T05:34:24.053Z,46.83
2018-09-14T05:36:51.227Z,44.13
2018-09-14T05:39:18.388Z,44.07
2018-09-14T05:41:45.570Z,43.50
2018-09-14T05:44:12.836Z,46.27
2018-09-14T05:46:39.948Z,47.37
2018-09-14T05:49:07.104Z,43.07
2018-09-14T05:51:34.194Z,44.17
2018-09-14T05:54:01.313Z,45.60
2018-09-14T05:56:28.437Z,53.07
2018-09-14T05:58:55.612Z,45.87
2018-09-14T06:01:22.732Z,48.80
2018-09-14T06:03:49.881Z,48.27
2018-09-14T06:06:17.034Z,48.27
2018-09-14T06:08:44.185Z,47.33
2018-09-14T06:11:11.348Z,48.90
2018-09-14T06:13:38.772Z,42.23
2018-09-14T06:16:05.980Z,36.40
2018-09-14T06:18:33.114Z,57.10
2018-09-14T06:21:00.257Z,53.90
2018-09-14T06:23:27.424Z,45.13
2018-09-14T06:25:54.542Z,41.90
2018-09-14T06:28:21.773Z,42.93
2018-09-14T06:30:48.936Z,50.27
2018-09-14T06:33:16.043Z,45.23
2018-09-14T06:35:43.232Z,41.50
2018-09-14T06:38:10.418Z,41.97
2018-09-14T06:40:37.589Z,45.77
2018-09-14T06:43:04.741Z,42.67
2018-09-14T06:45:31.858Z,34.77
2018-09-14T06:47:58.962Z,41.07
2018-09-14T06:50:26.193Z,39.90
2018-09-14T06:52:53.338Z,43.07
2018-09-14T06:55:20.476Z,38.87
2018-09-14T06:57:47.585Z,45.67
2018-09-14T07:00:14.782Z,39.07
2018-09-14T07:02:41.948Z,41.10
2018-09-14T07:05:09.064Z,37.33
2018-09-14T07:07:36.209Z,40.60
2018-09-14T07:10:03.679Z,34.13
2018-09-14T07:12:30.821Z,30.93
2018-09-14T07:14:57.960Z,32.07
2018-09-14T07:17:25.145Z,35.47
2018-09-14T07:19:52.264Z,35.20
2018-09-14T07:22:19.512Z,34.30
2018-09-14T07:24:46.647Z,31.60
2018-09-14T07:27:13.660Z,31.23
2018-09-14T07:29:40.843Z,26.37
2018-09-14T07:32:07.961Z,35.13
2018-09-14T07:34:35.152Z,31.80
2018-09-14T07:37:02.395Z,25.90
2018-09-14T07:39:29.517Z,26.83
2018-09-14T07:41:56.745Z,27.30
2018-09-14T07:44:23.909Z,30.00
2018-09-14T07:46:51.073Z,23.90
2018-09-14T07:49:18.214Z,25.80
2018-09-14T07:51:45.338Z,21.77
2018-09-14T07:54:12.503Z,22.70
2018-09-14T07:56:39.656Z,18.70
2018-09-14T07:59:06.796Z,20.00
2018-09-14T08:01:33.913Z,18.40
2018-09-14T08:04:01.427Z,18.40
2018-09-14T08:06:28.841Z,21.33
2018-09-14T08:08:55.968Z,19.50
2018-09-14T08:11:23.244Z,19.47
2018-09-14T08:13:50.409Z,18.50
2018-09-14T08:16:17.572Z,19.93
2018-09-14T08:18:44.741Z,19.93
2018-09-14T08:21:11.966Z,18.17
2018-09-14T08:23:39.072Z,18.43
2018-09-14T08:26:06.218Z,21.00
2018-09-14T08:28:33.391Z,16.17
2018-09-14T08:31:00.604Z,18.90
2018-09-14T08:33:27.773Z,20.60
2018-09-14T08:35:55.017Z,22.30
2018-09-14T08:38:22.157Z,19.80
2018-09-14T08:40:49.330Z,17.90
2018-09-14T08:43:16.545Z,18.10
2018-09-14T08:45:43.682Z,19.20
2018-09-14T08:48:10.832Z,17.93
2018-09-14T08:50:38.001Z,23.20
2018-09-14T08:53:05.165Z,21.13
2018-09-14T08:55:32.268Z,16.80
2018-09-14T08:57:59.552Z,19.67
2018-09-14T09:00:26.704Z,18.20
2018-09-14T09:02:54.282Z,15.40
2018-09-14T09:05:22.129Z,18.00
2018-09-14T09:07:49.664Z,15.60
2018-09-14T09:10:16.780Z,15.57
2018-09-14T09:12:43.933Z,25.30
2018-09-14T09:15:11.135Z,18.43
2018-09-14T09:17:38.331Z,16.83
2018-09-14T09:20:05.747Z,16.70
2018-09-14T09:22:32.840Z,15.63
2018-09-14T09:24:59.977Z,15.33
2018-09-14T09:27:27.133Z,16.13
2018-09-14T09:29:54.331Z,15.67
2018-09-14T09:32:21.491Z,18.17
2018-09-14T09:34:48.684Z,18.57
2018-09-14T09:37:15.818Z,19.43
2018-09-14T09:39:43.026Z,18.90
2018-09-14T09:42:10.174Z,19.27
2018-09-14T09:44:37.335Z,21.40
2018-09-14T09:47:04.529Z,17.97
2018-09-14T09:49:31.716Z,18.90
2018-09-14T09:51:58.865Z,17.23
2018-09-14T09:54:25.993Z,16.57
2018-09-14T09:56:53.432Z,19.50
2018-09-14T09:59:20.584Z,14.73
2018-09-14T10:01:53.261Z,12.90
2018-09-14T10:04:25.113Z,13.17
2018-09-14T10:06:52.661Z,12.33
2018-09-14T10:09:19.833Z,13.87
2018-09-14T10:11:47.040Z,12.93
2018-09-14T10:14:14.239Z,11.40
2018-09-14T10:16:48.234Z,13.20
2018-09-14T10:19:15.394Z,16.50
2018-09-14T10:21:42.552Z,14.60
2018-09-14T10:24:09.676Z,10.73
2018-09-14T10:26:36.811Z,11.73
2018-09-14T10:29:03.982Z,13.67
2018-09-14T10:31:31.073Z,13.93
2018-09-14T10:33:58.255Z,14.87
2018-09-14T10:36:25.323Z,12.13
2018-09-14T10:38:52.540Z,12.57
2018-09-14T10:41:19.705Z,13.20
2018-09-14T10:43:46.882Z,14.80
2018-09-14T10:46:14.008Z,16.40
2018-09-14T10:48:41.265Z,13.30
2018-09-14T10:51:08.433Z,12.13
2018-09-14T10:53:35.741Z,16.33
2018-09-14T10:56:02.925Z,12.47
2018-09-14T10:58:37.596Z,13.67
2018-09-14T11:01:04.805Z,11.50
2018-09-14T11:03:32.098Z,12.70
2018-09-14T11:05:59.197Z,9.70
2018-09-14T11:08:26.329Z,12.00
2018-09-14T11:10:53.456Z,9.37
2018-09-14T11:13:20.672Z,12.07
2018-09-14T11:15:47.820Z,9.73
2018-09-14T11:18:14.953Z,9.70
2018-09-14T11:20:42.143Z,10.20
2018-09-14T11:23:09.314Z,10.10
2018-09-14T11:25:36.535Z,12.30
2018-09-14T11:28:03.873Z,11.33
2018-09-14T11:30:30.875Z,10.13
2018-09-14T11:32:58.053Z,11.87
2018-09-14T11:35:25.172Z,11.10
2018-09-14T11:37:52.423Z,10.03
2018-09-14T11:40:19.547Z,9.90
2018-09-14T11:42:46.748Z,12.40
2018-09-14T11:45:13.964Z,10.63
2018-09-14T11:47:41.132Z,9.40
2018-09-14T11:50:08.288Z,10.33
2018-09-14T11:52:35.455Z,16.20
2018-09-14T11:55:02.828Z,11.03
2018-09-14T11:57:29.981Z,11.27
2018-09-14T11:59:57.128Z,10.47
2018-09-14T12:02:24.892Z,10.30
2018-09-14T12:04:53.687Z,9.80
2018-09-14T12:07:20.871Z,10.47
2018-09-14T12:09:48.033Z,10.10
2018-09-14T12:12:15.192Z,9.80
2018-09-14T12:14:42.416Z,10.17
2018-09-14T12:17:10.180Z,9.13
2018-09-14T12:19:37.324Z,9.70
2018-09-14T12:22:04.517Z,10.93
2018-09-14T12:24:31.604Z,10.03
2018-09-14T12:26:58.762Z,12.30
2018-09-14T12:29:25.989Z,9.80
2018-09-14T12:31:53.137Z,10.43
2018-09-14T12:34:20.250Z,9.10
2018-09-14T12:36:47.533Z,10.80
2018-09-14T12:39:14.737Z,10.03
2018-09-14T12:41:41.882Z,9.90
2018-09-14T12:44:09.081Z,10.97
2018-09-14T12:46:36.259Z,9.03
2018-09-14T12:49:03.616Z,9.00
2018-09-14T12:51:30.868Z,9.30
2018-09-14T12:53:57.984Z,8.67
2018-09-14T12:56:25.203Z,11.50
2018-09-14T12:58:52.402Z,9.87
2018-09-14T13:01:19.576Z,9.00
2018-09-14T13:03:46.757Z,8.20
2018-09-14T13:06:13.900Z,8.33
2018-09-14T13:08:41.009Z,7.43
2018-09-14T13:11:08.161Z,9.53
2018-09-14T13:13:35.296Z,8.43
2018-09-14T13:16:02.420Z,7.73
2018-09-14T13:18:29.643Z,8.60
2018-09-14T13:20:56.787Z,10.30
2018-09-14T13:23:24.009Z,8.70
2018-09-14T13:25:51.215Z,9.10
2018-09-14T13:28:18.416Z,8.20
2018-09-14T13:30:45.521Z,9.17
2018-09-14T13:33:12.725Z,7.57
2018-09-14T13:35:39.881Z,8.10
2018-09-14T13:38:07.057Z,8.03
2018-09-14T13:40:34.218Z,9.37
2018-09-14T13:43:01.396Z,9.03
2018-09-14T13:45:28.841Z,8.67
2018-09-14T13:47:56.077Z,8.33
2018-09-14T13:50:23.247Z,7.83
2018-09-14T13:52:50.512Z,8.70
2018-09-14T13:55:17.621Z,6.97
2018-09-14T13:57:44.883Z,8.03
2018-09-14T14:00:12.138Z,7.73
2018-09-14T14:02:39.402Z,6.90
2018-09-14T14:05:06.625Z,8.40
2018-09-14T14:07:33.951Z,8.27
2018-09-14T14:10:01.116Z,8.30
2018-09-14T14:12:28.387Z,7.57
2018-09-14T14:14:55.656Z,7.27
2018-09-14T14:17:22.877Z,6.40
2018-09-14T14:19:50.142Z,6.50
2018-09-14T14:22:17.377Z,6.07
2018-09-14T14:24:44.586Z,6.50
2018-09-14T14:27:11.854Z,5.93
2018-09-14T14:29:39.077Z,6.00
2018-09-14T14:32:06.441Z,5.90
2018-09-14T14:34:33.612Z,6.30
2018-09-14T14:37:00.798Z,5.87
2018-09-14T14:39:28.201Z,6.43
2018-09-14T14:41:55.356Z,5.47
2018-09-14T14:44:22.566Z,5.80
2018-09-14T14:46:49.809Z,7.07
2018-09-14T14:49:17.015Z,6.73
2018-09-14T14:51:44.429Z,6.50
2018-09-14T14:54:11.702Z,6.57
2018-09-14T14:56:38.858Z,7.73
2018-09-14T14:59:05.993Z,5.80
2018-09-14T15:01:33.179Z,6.43
2018-09-14T15:04:00.361Z,6.67
2018-09-14T15:06:27.721Z,5.90
2018-09-14T15:08:54.902Z,6.63
2018-09-14T15:11:22.073Z,6.63
2018-09-14T15:13:49.348Z,6.30
2018-09-14T15:16:16.491Z,5.77
2018-09-14T15:18:43.689Z,6.13
2018-09-14T15:21:10.915Z,6.13
2018-09-14T15:23:38.062Z,6.20
2018-09-14T15:26:05.245Z,7.23
2018-09-14T15:28:32.482Z,6.20
2018-09-14T15:30:59.657Z,6.60
2018-09-14T15:33:26.786Z,7.40
2018-09-14T15:35:54.129Z,8.23
2018-09-14T15:38:21.276Z,7.47
2018-09-14T15:40:48.548Z,7.80
2018-09-14T15:43:15.741Z,7.37
2018-09-14T15:45:42.904Z,6.67
2018-09-14T15:48:10.261Z,6.93
2018-09-14T15:50:37.458Z,6.23
2018-09-14T15:53:04.617Z,7.20
2018-09-14T15:55:31.784Z,7.63
2018-09-14T15:57:58.968Z,9.33
2018-09-14T16:00:26.218Z,7.57
2018-09-14T16:02:53.735Z,8.17
2018-09-14T16:05:20.923Z,9.83
2018-09-14T16:07:48.459Z,8.40
2018-09-14T16:10:15.758Z,8.83
2018-09-14T16:12:42.908Z,10.27
2018-09-14T16:15:10.312Z,9.03
2018-09-14T16:17:37.606Z,7.60
2018-09-14T16:20:05.535Z,8.93
2018-09-14T16:22:32.974Z,8.80
2018-09-14T16:25:00.114Z,8.90
2018-09-14T16:27:27.276Z,8.10
2018-09-14T16:29:54.544Z,9.27
2018-09-14T16:32:21.792Z,8.80
2018-09-14T16:34:48.962Z,8.37
2018-09-14T16:37:16.200Z,7.50
2018-09-14T16:39:43.281Z,8.63
2018-09-14T16:42:10.441Z,8.17
2018-09-14T16:44:39.534Z,8.23
2018-09-14T16:47:07.157Z,8.33
2018-09-14T16:49:34.376Z,7.73
2018-09-14T16:52:01.634Z,7.20
2018-09-14T16:54:28.930Z,8.30
2018-09-14T16:56:56.405Z,9.90
2018-09-14T16:59:23.597Z,9.00
2018-09-14T17:01:50.945Z,9.63
2018-09-14T17:04:18.107Z,8.73
2018-09-14T17:06:45.386Z,11.50
2018-09-14T17:09:12.707Z,8.80
2018-09-14T17:11:40.127Z,9.47
2018-09-14T17:14:08.081Z,10.90
2018-09-14T17:16:35.467Z,8.53
2018-09-14T17:19:02.605Z,9.40
2018-09-14T17:21:30.081Z,8.43
2018-09-14T17:23:57.281Z,10.47
2018-09-14T17:26:24.585Z,10.37
2018-09-14T17:28:52.019Z,9.97
2018-09-14T17:31:20.050Z,10.53
2018-09-14T17:33:47.214Z,11.37
2018-09-14T17:36:14.589Z,12.53
2018-09-14T17:38:41.792Z,13.30
2018-09-14T17:41:09.119Z,13.13
2018-09-14T17:43:36.552Z,10.97
2018-09-14T17:46:03.838Z,12.27
2018-09-14T17:48:31.099Z,10.13
2018-09-14T17:50:58.477Z,9.33
2018-09-14T17:53:25.737Z,9.50
2018-09-14T17:55:53.095Z,7.73
2018-09-14T17:58:20.490Z,9.90
2018-09-14T18:00:47.736Z,9.13
2018-09-14T18:03:22.059Z,8.33
2018-09-14T18:05:49.217Z,9.23
2018-09-14T18:08:16.582Z,7.33
2018-09-14T18:10:43.987Z,7.30
2018-09-14T18:13:11.260Z,8.80
2018-09-14T18:15:38.419Z,8.47
2018-09-14T18:18:05.758Z,8.27
2018-09-14T18:20:33.027Z,8.50
2018-09-14T18:23:00.291Z,7.70
2018-09-14T18:25:27.616Z,11.03
2018-09-14T18:27:54.936Z,8.00
2018-09-14T18:30:22.274Z,8.23
2018-09-14T18:32:49.653Z,13.33
2018-09-14T18:35:17.058Z,9.43
2018-09-14T18:37:44.434Z,8.40
2018-09-14T18:40:12.044Z,8.13
2018-09-14T18:42:39.429Z,9.20
2018-09-14T18:45:07.055Z,10.30
2018-09-14T18:47:34.655Z,11.10
2018-09-14T18:50:02.438Z,12.93
2018-09-14T18:52:30.072Z,9.70
2018-09-14T18:54:57.692Z,10.23
2018-09-14T18:57:25.210Z,10.43
2018-09-14T18:59:52.744Z,9.23
2018-09-14T19:02:20.387Z,10.90
2018-09-14T19:04:48.030Z,10.70
2018-09-14T19:07:15.512Z,18.20
2018-09-14T19:09:43.103Z,10.77
2018-09-14T19:12:10.677Z,15.63
2018-09-14T19:14:38.186Z,9.93
2018-09-14T19:17:05.917Z,15.77
2018-09-14T19:19:33.577Z,14.83
2018-09-14T19:22:01.431Z,11.60
2018-09-14T19:24:29.069Z,11.07
2018-09-14T19:26:56.905Z,10.87
2018-09-14T19:29:24.549Z,12.90
2018-09-14T19:31:52.154Z,16.37
2018-09-14T19:34:19.787Z,17.93
2018-09-14T19:36:47.367Z,9.67
2018-09-14T19:39:14.959Z,10.77
2018-09-14T19:41:42.605Z,10.67
2018-09-14T19:44:10.403Z,12.97
2018-09-14T19:46:38.035Z,11.10
2018-09-14T19:49:05.582Z,11.50
2018-09-14T19:51:33.230Z,11.40
2018-09-14T19:54:00.773Z,12.87
2018-09-14T19:56:28.313Z,10.47
2018-09-14T19:58:56.050Z,10.40
2018-09-14T20:01:23.483Z,11.10
2018-09-14T20:03:50.989Z,13.17
2018-09-14T20:06:18.490Z,11.60
2018-09-14T20:08:45.773Z,12.87
2018-09-14T20:11:13.278Z,8.97
2018-09-14T20:13:42.963Z,9.00
2018-09-14T20:16:10.342Z,14.43
2018-09-14T20:18:37.671Z,14.87
2018-09-14T20:21:04.962Z,10.93
2018-09-14T20:23:32.272Z,8.50
2018-09-14T20:25:59.658Z,9.23
2018-09-14T20:28:26.925Z,11.80
2018-09-14T20:30:54.237Z,15.90
2018-09-14T20:33:21.533Z,9.90
2018-09-14T20:35:48.771Z,11.03
2018-09-14T20:38:16.176Z,13.07
2018-09-14T20:40:43.435Z,17.40
2018-09-14T20:43:11.325Z,8.40
2018-09-14T20:45:38.581Z,13.27
2018-09-14T20:48:05.792Z,12.63
2018-09-14T20:50:33.059Z,12.60
2018-09-14T20:53:00.528Z,16.30
2018-09-14T20:55:28.736Z,12.07
2018-09-14T20:58:02.497Z,9.63
2018-09-14T21:00:30.760Z,11.40
2018-09-14T21:02:57.964Z,11.20
2018-09-14T21:05:25.152Z,9.73
2018-09-14T21:07:52.484Z,8.30
2018-09-14T21:10:19.793Z,10.50
2018-09-14T21:12:47.977Z,14.07
2018-09-14T21:15:15.313Z,9.83
2018-09-14T21:17:42.614Z,8.70
2018-09-14T21:20:09.755Z,10.27
2018-09-14T21:22:37.042Z,8.07
2018-09-14T21:25:04.607Z,10.63
2018-09-14T21:27:32.022Z,14.10
2018-09-14T21:29:59.305Z,10.97
2018-09-14T21:32:26.454Z,9.63
2018-09-14T21:34:53.703Z,11.70
2018-09-14T21:37:20.872Z,10.97
2018-09-14T21:39:48.725Z,9.70
2018-09-14T21:42:16.196Z,14.70
2018-09-14T21:44:43.533Z,9.97
2018-09-14T21:47:12.488Z,9.10
2018-09-14T21:49:44.496Z,9.33
2018-09-14T21:52:11.800Z,10.50
2018-09-14T21:54:38.986Z,10.57
2018-09-14T21:57:05.992Z,11.57
2018-09-14T21:59:33.136Z,9.10
2018-09-14T22:02:00.410Z,9.63
2018-09-14T22:04:27.760Z,10.30
2018-09-14T22:06:54.884Z,11.40
2018-09-14T22:09:22.776Z,13.13
2018-09-14T22:11:49.921Z,13.90
2018-09-14T22:14:17.097Z,10.70
2018-09-14T22:16:44.653Z,13.17
2018-09-14T22:19:11.817Z,11.20
2018-09-14T22:21:39.110Z,11.70
2018-09-14T22:24:06.361Z,12.73
2018-09-14T22:26:33.541Z,10.00
2018-09-14T22:29:00.776Z,10.83
2018-09-14T22:31:28.021Z,14.90
2018-09-14T22:46:54.708Z,13.03
2018-09-14T22:49:21.900Z,10.60
2018-09-14T22:51:49.124Z,11.50
2018-09-14T22:54:16.271Z,14.00
2018-09-14T22:56:43.408Z,8.40
2018-09-14T22:59:10.645Z,11.17
2018-09-14T23:01:37.928Z,13.27
2018-09-14T23:04:05.183Z,18.40
2018-09-14T23:06:32.378Z,11.43
2018-09-14T23:08:59.564Z,19.07
2018-09-14T23:11:26.830Z,11.07
2018-09-14T23:13:53.964Z,11.50
2018-09-14T23:16:21.696Z,10.77
2018-09-14T23:18:49.012Z,9.00
2018-09-14T23:21:16.512Z,8.77
2018-09-14T23:23:43.891Z,14.27
2018-09-14T23:26:13.409Z,9.50
2018-09-14T23:28:40.735Z,8.63
2018-09-14T23:31:08.364Z,8.93
2018-09-14T23:33:35.574Z,8.73
2018-09-14T23:36:02.739Z,15.20
2018-09-14T23:38:29.816Z,9.10
2018-09-14T23:40:56.976Z,9.90
2018-09-14T23:43:24.151Z,9.10
2018-09-14T23:45:51.308Z,11.90
2018-09-14T23:48:18.476Z,10.17
2018-09-14T23:50:45.624Z,8.47
2018-09-14T23:53:12.712Z,16.90
2018-09-14T23:55:39.967Z,10.33
2018-09-14T23:58:07.132Z,13.10
